FAMM

Mmabatho International Airport

Mafeking, South Africa
METAR FAMM 141300Z 31011KT CAVOK 27/M00 Q1023 NOSIG
Observed Flight Rules
Aug-14 @ 13:00 UTC (43 minutes ago) Visual Flight Rules
Wind Visibility Clouds
310° at 11 knots 10,000+ meters
  • Clear skies
Temperatures Readings
Current 27°C / 81°F
Dewpoint 0°C / 32°F
Humidity 17%
Altimeter 30.21" Hg
Pressure 1023 hPa
Elevation 1277
METAR FAMM 141300Z 31011KT CAVOK 27/M00 Q1023 NOSIG
Observed Flight Rules
Aug-14 @ 13:00 UTC
(43 minutes ago)
VFR
Wind Visibility
310° at 11 knots 10,000+ meters
Clouds
  • Clear skies
Temperature Dewpoint
27°C / 81°F 0°C / 32°F
Humidity Altimeter Pressure
17% 30.21" Hg 1023 hPa